createdAt,value
2019-04-04T00:02:19.085Z,90.60
2019-04-04T00:04:47.289Z,90.70
2019-04-04T00:07:14.647Z,90.30
2019-04-04T00:09:42.213Z,90.10
2019-04-04T00:12:09.591Z,89.70
2019-04-04T00:14:46.403Z,90.10
2019-04-04T00:17:22.919Z,90.10
2019-04-04T00:20:04.553Z,90.00
2019-04-04T00:22:43.163Z,90.00
2019-04-04T00:25:22.808Z,90.10
2019-04-04T00:28:08.395Z,90.90
2019-04-04T00:30:36.751Z,90.70
2019-04-04T00:33:13.021Z,90.70
2019-04-04T00:35:41.122Z,90.60
2019-04-04T00:38:12.603Z,90.50
2019-04-04T00:40:41.955Z,90.50
2019-04-04T00:43:13.898Z,90.70
2019-04-04T00:45:49.860Z,90.60
2019-04-04T00:48:44.798Z,91.20
2019-04-04T00:51:18.924Z,91.30
2019-04-04T00:53:46.940Z,91.10
2019-04-04T00:56:26.826Z,90.90
2019-04-04T00:58:56.124Z,91.30
2019-04-04T01:01:26.877Z,91.00
2019-04-04T01:04:04.857Z,90.90
2019-04-04T01:06:41.272Z,90.90
2019-04-04T01:09:28.968Z,90.80
2019-04-04T01:11:57.065Z,91.30
2019-04-04T01:14:48.392Z,91.00
2019-04-04T01:17:18.050Z,90.90
2019-04-04T01:19:48.710Z,90.80
2019-04-04T01:22:18.131Z,90.80
2019-04-04T01:24:46.159Z,90.90
2019-04-04T01:27:14.330Z,90.90
2019-04-04T01:29:53.052Z,91.00
2019-04-04T01:32:22.654Z,91.30
2019-04-04T01:34:52.134Z,91.50
2019-04-04T01:37:26.907Z,91.40
2019-04-04T01:40:37.124Z,91.50
2019-04-04T01:43:05.130Z,91.70
2019-04-04T01:45:44.164Z,91.70
2019-04-04T01:48:27.572Z,91.90
2019-04-04T01:50:55.683Z,92.00
2019-04-04T01:53:23.729Z,92.00
2019-04-04T01:55:51.785Z,92.10
2019-04-04T01:58:19.767Z,92.30
2019-04-04T02:00:48.696Z,92.40
2019-04-04T02:03:22.745Z,92.60
2019-04-04T02:05:51.137Z,92.90
2019-04-04T02:08:19.803Z,92.80
2019-04-04T02:10:47.488Z,92.90
2019-04-04T02:13:16.832Z,92.90
2019-04-04T02:15:45.620Z,93.20
2019-04-04T02:18:35.766Z,93.40
2019-04-04T02:21:04.944Z,93.30
2019-04-04T02:23:36.523Z,94.00
2019-04-04T02:26:05.142Z,94.10
2019-04-04T02:28:33.254Z,94.10
2019-04-04T02:31:01.049Z,94.20
2019-04-04T02:33:31.959Z,94.30
2019-04-04T02:35:57.789Z,94.00
2019-04-04T02:38:28.110Z,94.10
2019-04-04T02:40:55.021Z,93.60
2019-04-04T02:43:27.424Z,93.70
2019-04-04T02:45:53.273Z,93.60
2019-04-04T02:48:23.368Z,93.50
2019-04-04T02:50:50.354Z,93.50
2019-04-04T02:53:20.427Z,93.40
2019-04-04T02:55:47.533Z,93.40
2019-04-04T02:58:15.503Z,93.40
2019-04-04T03:00:43.073Z,93.30
2019-04-04T03:03:10.636Z,93.30
2019-04-04T03:05:38.233Z,93.40
2019-04-04T03:08:06.073Z,94.10
2019-04-04T03:10:33.697Z,93.90
2019-04-04T03:13:03.373Z,93.70
2019-04-04T03:15:31.111Z,93.60
2019-04-04T03:17:58.790Z,93.50
2019-04-04T03:20:27.452Z,93.40
2019-04-04T03:23:00.284Z,93.40
2019-04-04T03:25:27.127Z,93.50
2019-04-04T03:27:55.534Z,93.90
2019-04-04T03:30:24.496Z,93.50
2019-04-04T03:32:54.731Z,93.60
2019-04-04T03:35:26.551Z,93.60
2019-04-04T03:37:51.159Z,93.60
2019-04-04T03:40:19.347Z,93.60
2019-04-04T03:42:46.973Z,93.70
2019-04-04T03:45:14.385Z,93.70
2019-04-04T03:47:44.493Z,93.80
2019-04-04T03:50:11.261Z,93.90
2019-04-04T03:52:43.382Z,93.90
2019-04-04T03:55:09.785Z,94.00
2019-04-04T03:57:37.422Z,94.10
2019-04-04T04:00:07.080Z,94.20
2019-04-04T04:02:35.817Z,94.30
2019-04-04T04:05:17.411Z,94.40
2019-04-04T04:07:45.823Z,94.30
2019-04-04T04:10:14.024Z,94.50
2019-04-04T04:12:43.043Z,94.40
2019-04-04T04:15:10.775Z,94.40
2019-04-04T04:17:38.197Z,94.40
2019-04-04T04:20:06.755Z,94.30
2019-04-04T04:22:34.110Z,94.40
2019-04-04T04:25:03.267Z,94.70
2019-04-04T04:27:30.889Z,94.50
2019-04-04T04:29:59.766Z,94.60
2019-04-04T04:32:28.769Z,94.70
2019-04-04T04:34:56.779Z,94.50
2019-04-04T04:37:24.275Z,94.50
2019-04-04T04:39:51.708Z,94.40
2019-04-04T04:42:21.121Z,94.20
2019-04-04T04:44:48.629Z,94.50
2019-04-04T04:47:16.215Z,94.30
2019-04-04T04:49:43.801Z,94.50
2019-04-04T04:52:14.211Z,94.30
2019-04-04T04:54:40.908Z,94.20
2019-04-04T04:57:08.551Z,94.50
2019-04-04T04:59:36.197Z,94.20
2019-04-04T05:02:03.894Z,94.20
2019-04-04T05:04:31.384Z,94.10
2019-04-04T05:06:59.527Z,94.20
2019-04-04T05:09:27.178Z,94.10
2019-04-04T05:11:54.843Z,94.00
2019-04-04T05:14:22.378Z,93.80
2019-04-04T05:16:50.075Z,93.50
2019-04-04T05:19:18.978Z,93.40
2019-04-04T05:21:49.239Z,93.40
2019-04-04T05:24:18.014Z,93.00
2019-04-04T05:26:46.291Z,92.90
2019-04-04T05:29:14.143Z,93.00
2019-04-04T05:31:41.950Z,92.90
2019-04-04T05:34:09.793Z,92.40
2019-04-04T05:36:37.426Z,92.20
2019-04-04T05:39:07.919Z,91.80
2019-04-04T05:41:37.296Z,91.30
2019-04-04T05:44:04.860Z,91.10
2019-04-04T05:46:33.366Z,90.70
2019-04-04T05:49:07.573Z,90.30
2019-04-04T05:51:30.255Z,90.20
2019-04-04T05:53:57.926Z,89.60
2019-04-04T05:56:25.354Z,89.20
2019-04-04T05:58:53.664Z,89.20
2019-04-04T06:01:21.978Z,88.20
2019-04-04T06:03:49.528Z,86.80
2019-04-04T06:06:16.868Z,85.60
2019-04-04T06:08:44.284Z,85.00
2019-04-04T06:11:12.396Z,83.70
2019-04-04T06:13:40.257Z,82.70
2019-04-04T06:16:07.717Z,80.40
2019-04-04T06:18:35.145Z,78.10
2019-04-04T06:21:02.809Z,76.20
2019-04-04T06:23:30.148Z,73.20
2019-04-04T06:25:57.473Z,71.80
2019-04-04T06:28:24.876Z,69.50
2019-04-04T06:30:54.170Z,66.60
2019-04-04T06:33:21.762Z,65.60
2019-04-04T06:35:49.187Z,63.20
2019-04-04T06:38:16.670Z,61.50
2019-04-04T06:40:44.029Z,59.10
2019-04-04T06:43:12.038Z,58.80
2019-04-04T06:45:39.593Z,57.00
2019-04-04T06:48:07.978Z,57.00
2019-04-04T06:50:38.897Z,56.60
2019-04-04T06:53:04.756Z,56.10
2019-04-04T06:55:32.201Z,55.00
2019-04-04T06:57:59.605Z,54.70
2019-04-04T07:00:27.138Z,55.10
2019-04-04T07:02:56.077Z,54.90
2019-04-04T07:05:23.588Z,54.60
2019-04-04T07:07:51.075Z,54.50
2019-04-04T07:10:21.037Z,53.90
2019-04-04T07:12:48.996Z,53.10
2019-04-04T07:15:18.065Z,52.30
2019-04-04T07:17:45.708Z,51.20
2019-04-04T07:20:16.694Z,49.60
2019-04-04T07:22:44.143Z,48.20
2019-04-04T07:25:11.697Z,47.80
2019-04-04T07:27:39.118Z,47.20
2019-04-04T07:30:08.126Z,46.90
2019-04-04T07:32:35.662Z,47.40
2019-04-04T07:35:03.736Z,47.50
2019-04-04T07:37:31.047Z,48.10
2019-04-04T07:39:58.356Z,48.50
2019-04-04T07:42:25.694Z,48.10
2019-04-04T07:44:54.746Z,46.90
2019-04-04T07:47:22.613Z,44.80
2019-04-04T07:49:53.158Z,43.70
2019-04-04T07:52:20.793Z,43.20
2019-04-04T07:54:48.130Z,43.70
2019-04-04T07:57:17.346Z,44.20
2019-04-04T07:59:44.953Z,44.20
2019-04-04T08:02:12.412Z,44.00
2019-04-04T08:04:39.974Z,44.60
2019-04-04T08:07:07.327Z,44.20
2019-04-04T08:09:34.972Z,43.40
2019-04-04T08:12:02.577Z,43.00
2019-04-04T08:14:30.017Z,42.80
2019-04-04T08:16:57.373Z,42.80
2019-04-04T08:19:24.795Z,42.90
2019-04-04T08:21:52.118Z,42.60
2019-04-04T08:24:19.445Z,42.60
2019-04-04T08:26:47.102Z,43.20
2019-04-04T08:29:14.477Z,42.50
2019-04-04T08:31:41.841Z,41.60
2019-04-04T08:34:09.218Z,40.50
2019-04-04T08:36:36.700Z,40.00
2019-04-04T08:39:07.845Z,40.30
2019-04-04T08:41:35.212Z,39.30
2019-04-04T08:44:03.073Z,39.50
2019-04-04T08:46:30.732Z,39.10
2019-04-04T08:48:58.182Z,39.30
2019-04-04T08:51:25.497Z,39.30
2019-04-04T08:53:53.021Z,40.00
2019-04-04T08:56:20.365Z,40.60
2019-04-04T08:58:47.704Z,41.60
2019-04-04T09:01:15.169Z,41.70
2019-04-04T09:03:42.723Z,41.00
2019-04-04T09:06:10.067Z,40.80
2019-04-04T09:08:37.493Z,40.70
2019-04-04T09:11:05.107Z,39.60
2019-04-04T09:13:32.750Z,37.90
2019-04-04T09:16:00.175Z,36.20
2019-04-04T09:18:27.596Z,34.00
2019-04-04T09:20:54.959Z,31.50
2019-04-04T09:23:22.380Z,30.30
2019-04-04T09:25:50.702Z,29.80
2019-04-04T09:28:18.042Z,28.50
2019-04-04T09:30:45.636Z,28.10
2019-04-04T09:33:13.055Z,27.60
2019-04-04T09:35:40.549Z,26.80
2019-04-04T09:38:07.924Z,25.90
2019-04-04T09:40:35.269Z,25.70
2019-04-04T09:43:02.677Z,25.30
2019-04-04T09:46:23.577Z,24.50
2019-04-04T09:48:50.924Z,24.40
2019-04-04T09:51:18.216Z,24.00
2019-04-04T09:53:52.871Z,23.70
2019-04-04T09:56:15.050Z,24.30
2019-04-04T09:58:42.525Z,25.10
2019-04-04T10:01:09.932Z,24.20
2019-04-04T10:03:37.609Z,23.70
2019-04-04T10:06:05.119Z,23.40
2019-04-04T10:08:32.741Z,23.20
2019-04-04T10:11:00.135Z,22.80
2019-04-04T10:13:27.575Z,22.50
2019-04-04T10:15:55.077Z,22.40
2019-04-04T10:18:22.382Z,22.20
2019-04-04T10:20:49.787Z,22.20
2019-04-04T10:23:17.117Z,21.70
2019-04-04T10:25:44.478Z,21.20
2019-04-04T10:28:11.946Z,21.20
2019-04-04T10:30:40.277Z,20.50
2019-04-04T10:33:07.727Z,20.50
2019-04-04T10:35:35.268Z,21.50
2019-04-04T10:38:02.733Z,22.00
2019-04-04T10:40:30.266Z,21.90
2019-04-04T10:42:57.731Z,21.90
2019-04-04T10:45:25.277Z,21.50
2019-04-04T10:47:52.632Z,20.80
2019-04-04T10:50:20.059Z,20.70
2019-04-04T10:52:47.611Z,20.90
2019-04-04T10:55:15.070Z,20.70
2019-04-04T10:57:42.475Z,20.00
2019-04-04T11:00:11.650Z,20.30
2019-04-04T11:02:39.046Z,20.70
2019-04-04T11:05:06.693Z,21.50
2019-04-04T11:07:34.490Z,22.00
2019-04-04T11:10:01.854Z,22.00
2019-04-04T11:12:29.704Z,21.20
2019-04-04T11:14:57.048Z,21.00
2019-04-04T11:17:24.472Z,21.50
2019-04-04T11:19:51.904Z,22.60
2019-04-04T11:22:19.278Z,22.00
2019-04-04T11:24:46.680Z,22.00
2019-04-04T11:27:14.014Z,22.60
2019-04-04T11:29:41.373Z,22.80
2019-04-04T11:32:08.827Z,23.50
2019-04-04T11:34:36.282Z,24.40
2019-04-04T11:37:03.850Z,25.00
2019-04-04T11:39:31.224Z,23.60
2019-04-04T11:41:58.914Z,22.80
2019-04-04T11:44:26.341Z,22.10
2019-04-04T11:46:53.826Z,21.50
2019-04-04T11:49:21.363Z,21.00
2019-04-04T11:51:51.797Z,22.10
2019-04-04T11:54:19.332Z,23.30
2019-04-04T11:56:46.737Z,23.50
2019-04-04T11:59:14.359Z,24.30
2019-04-04T12:01:42.473Z,25.50
2019-04-04T12:04:09.926Z,25.60
2019-04-04T12:06:37.319Z,25.20
2019-04-04T12:09:07.303Z,26.50
2019-04-04T12:11:35.054Z,27.20
2019-04-04T12:14:03.338Z,27.90
2019-04-04T12:16:32.707Z,27.80
2019-04-04T12:19:00.347Z,27.70
2019-04-04T12:21:28.280Z,27.40
2019-04-04T12:23:56.961Z,26.40
2019-04-04T12:26:24.447Z,25.50
2019-04-04T12:28:52.087Z,24.20
2019-04-04T12:31:20.063Z,22.90
2019-04-04T12:33:48.427Z,22.10
2019-04-04T12:36:24.541Z,21.80
2019-04-04T12:38:46.345Z,21.40
2019-04-04T12:41:13.847Z,21.20
2019-04-04T12:43:41.322Z,21.80
2019-04-04T12:46:09.190Z,22.80
2019-04-04T12:48:36.534Z,24.10
2019-04-04T12:51:04.525Z,25.20
2019-04-04T12:53:32.888Z,25.50
2019-04-04T12:56:01.823Z,26.40
2019-04-04T12:58:29.190Z,27.00
2019-04-04T13:00:56.650Z,27.50
2019-04-04T13:03:24.219Z,28.10
2019-04-04T13:05:52.772Z,28.60
2019-04-04T13:08:20.757Z,29.30
2019-04-04T13:10:48.216Z,29.80
2019-04-04T13:13:16.362Z,29.90
2019-04-04T13:15:43.784Z,30.50
2019-04-04T13:18:11.266Z,31.00
2019-04-04T13:20:38.609Z,30.90
2019-04-04T13:23:06.023Z,31.30
2019-04-04T13:25:33.488Z,31.70
2019-04-04T13:28:00.805Z,31.70
2019-04-04T13:30:28.158Z,32.30
2019-04-04T13:32:56.268Z,32.30
2019-04-04T13:35:23.627Z,32.80
2019-04-04T13:37:52.785Z,32.90
2019-04-04T13:40:20.395Z,33.90
2019-04-04T13:42:48.009Z,33.30
2019-04-04T13:45:16.016Z,33.80
2019-04-04T13:47:44.634Z,33.70
2019-04-04T13:50:12.940Z,33.30
2019-04-04T13:52:41.013Z,33.40
2019-04-04T13:55:08.705Z,33.40
2019-04-04T13:57:39.106Z,33.20
2019-04-04T14:00:09.167Z,33.10
2019-04-04T14:02:36.926Z,33.50
2019-04-04T14:05:10.183Z,33.60
2019-04-04T14:07:37.282Z,33.70
2019-04-04T14:10:05.843Z,33.50
2019-04-04T14:12:36.367Z,33.10
2019-04-04T14:15:05.414Z,33.30
2019-04-04T14:17:33.223Z,32.90
2019-04-04T14:20:00.735Z,32.50
2019-04-04T14:22:28.091Z,32.90
2019-04-04T14:24:55.618Z,34.20
2019-04-04T14:27:23.229Z,34.80
2019-04-04T14:29:55.171Z,34.80
2019-04-04T14:32:22.230Z,35.20
2019-04-04T14:34:49.801Z,36.30
2019-04-04T14:37:17.303Z,36.80
2019-04-04T14:39:46.691Z,37.00
2019-04-04T14:42:14.057Z,37.10
2019-04-04T14:44:41.720Z,37.50
2019-04-04T14:47:09.291Z,38.20
2019-04-04T14:49:37.261Z,38.00
2019-04-04T14:52:04.820Z,38.70
2019-04-04T14:54:32.709Z,38.20
2019-04-04T14:57:00.264Z,38.60
2019-04-04T14:59:28.308Z,39.00
2019-04-04T15:01:56.205Z,39.30
2019-04-04T15:04:26.355Z,39.20
2019-04-04T15:06:54.293Z,39.40
2019-04-04T15:09:21.851Z,39.80
2019-04-04T15:11:50.162Z,39.70
2019-04-04T15:14:18.921Z,39.90
2019-04-04T15:16:46.709Z,40.10
2019-04-04T15:19:17.442Z,40.10
2019-04-04T15:21:50.582Z,40.40
2019-04-04T15:24:18.250Z,40.30
2019-04-04T15:26:47.995Z,40.30
2019-04-04T15:29:16.561Z,40.40
2019-04-04T15:31:44.246Z,40.70
2019-04-04T15:34:11.745Z,40.50
2019-04-04T15:36:39.074Z,40.60
2019-04-04T15:39:06.834Z,40.70
2019-04-04T15:41:37.093Z,40.50
2019-04-04T15:44:03.824Z,40.80
2019-04-04T15:46:32.128Z,40.80
2019-04-04T15:48:59.597Z,41.00
2019-04-04T15:51:28.039Z,41.40
2019-04-04T15:53:55.609Z,41.40
2019-04-04T15:56:23.494Z,41.20
2019-04-04T15:58:51.020Z,41.50
2019-04-04T16:01:18.373Z,42.60
2019-04-04T16:03:45.847Z,42.70
2019-04-04T16:06:15.270Z,42.90
2019-04-04T16:08:43.500Z,43.20
2019-04-04T16:11:10.966Z,43.20
2019-04-04T16:13:38.334Z,43.30
2019-04-04T16:16:06.659Z,43.40
2019-04-04T16:18:34.287Z,44.20
2019-04-04T16:21:02.305Z,45.30
2019-04-04T16:23:30.695Z,45.50
2019-04-04T16:25:58.263Z,45.00
2019-04-04T16:28:25.697Z,45.80
2019-04-04T16:30:55.053Z,45.60
2019-04-04T16:33:22.479Z,45.30
2019-04-04T16:35:50.024Z,45.70
2019-04-04T16:38:18.034Z,45.60
2019-04-04T16:40:45.751Z,45.50
2019-04-04T16:43:13.294Z,45.80
2019-04-04T16:45:44.003Z,45.80
2019-04-04T16:48:13.846Z,46.30
2019-04-04T16:50:41.958Z,46.40
2019-04-04T16:53:09.411Z,46.80
2019-04-04T16:55:38.709Z,47.20
2019-04-04T16:58:06.191Z,48.30
2019-04-04T17:00:35.090Z,48.90
2019-04-04T17:03:02.814Z,48.10
2019-04-04T17:05:30.514Z,48.70
2019-04-04T17:07:58.009Z,49.50
2019-04-04T17:10:28.099Z,48.90
2019-04-04T17:12:56.408Z,49.30
2019-04-04T17:15:24.101Z,49.80
2019-04-04T17:17:51.605Z,50.10
2019-04-04T17:20:20.854Z,50.90
2019-04-04T17:22:53.279Z,51.30
2019-04-04T17:25:22.188Z,51.30
2019-04-04T17:27:51.851Z,51.50
2019-04-04T17:30:20.862Z,51.80
2019-04-04T17:32:49.647Z,52.20
2019-04-04T17:35:17.938Z,52.30
2019-04-04T17:37:46.111Z,52.40
2019-04-04T17:40:14.115Z,53.00
2019-04-04T17:42:44.032Z,53.20
2019-04-04T17:45:13.129Z,53.40
2019-04-04T17:47:40.809Z,53.80
2019-04-04T17:50:10.151Z,53.90
2019-04-04T17:52:37.871Z,54.30
2019-04-04T17:55:05.997Z,54.40
2019-04-04T17:57:33.797Z,55.00
2019-04-04T18:00:01.485Z,55.30
2019-04-04T18:02:29.081Z,54.90
2019-04-04T18:04:56.511Z,55.40
2019-04-04T18:07:23.979Z,55.20
2019-04-04T18:09:51.680Z,55.50
2019-04-04T18:12:19.298Z,55.90
2019-04-04T18:14:46.676Z,56.10
2019-04-04T18:17:15.485Z,56.60
2019-04-04T18:19:43.045Z,57.40
2019-04-04T18:22:10.579Z,58.10
2019-04-04T18:24:38.135Z,58.60
2019-04-04T18:27:06.047Z,59.10
2019-04-04T18:29:33.972Z,59.40
2019-04-04T18:32:02.424Z,60.10
2019-04-04T18:34:31.727Z,60.70
2019-04-04T18:37:00.146Z,61.10
2019-04-04T18:39:27.505Z,62.10
2019-04-04T18:41:56.052Z,62.80
2019-04-04T18:44:24.936Z,63.10
2019-04-04T18:46:53.278Z,63.60
2019-04-04T18:49:23.484Z,64.20
2019-04-04T18:51:51.084Z,65.60
2019-04-04T18:54:18.678Z,65.20
2019-04-04T18:56:49.808Z,66.00
2019-04-04T18:59:19.648Z,67.40
2019-04-04T19:01:52.295Z,67.00
2019-04-04T19:04:20.812Z,68.30
2019-04-04T19:06:49.190Z,69.30
2019-04-04T19:09:16.676Z,69.70
2019-04-04T19:11:45.756Z,70.10
2019-04-04T19:14:13.341Z,72.00
2019-04-04T19:16:41.068Z,72.00
2019-04-04T19:19:08.858Z,72.50
2019-04-04T19:21:36.638Z,72.40
2019-04-04T19:24:05.151Z,72.70
2019-04-04T19:26:34.970Z,73.40
2019-04-04T19:29:03.790Z,74.80
2019-04-04T19:31:32.898Z,74.20
2019-04-04T19:34:00.273Z,74.40
2019-04-04T19:36:30.489Z,74.60
2019-04-04T19:38:59.483Z,74.40
2019-04-04T19:41:28.143Z,75.60
2019-04-04T19:43:55.664Z,75.40
2019-04-04T19:46:36.441Z,75.70
2019-04-04T19:48:55.315Z,75.90
2019-04-04T19:51:22.708Z,76.00
2019-04-04T19:53:50.640Z,76.10
2019-04-04T19:56:17.946Z,76.20
2019-04-04T19:58:46.272Z,76.70
2019-04-04T20:01:15.010Z,76.70
2019-04-04T20:03:42.552Z,77.00
2019-04-04T20:06:11.120Z,77.30
2019-04-04T20:08:38.750Z,77.80
2019-04-04T20:11:07.023Z,77.80
2019-04-04T20:13:47.914Z,77.90
2019-04-04T20:16:16.957Z,77.80
2019-04-04T20:18:45.437Z,78.00
2019-04-04T20:21:13.773Z,78.10
2019-04-04T20:23:45.400Z,77.90
2019-04-04T20:26:13.150Z,77.90
2019-04-04T20:28:40.612Z,78.10
2019-04-04T20:31:08.232Z,78.20
2019-04-04T20:33:35.891Z,78.30
2019-04-04T20:36:05.016Z,78.50
2019-04-04T20:38:33.726Z,79.00
2019-04-04T20:41:01.510Z,79.00
2019-04-04T20:43:29.194Z,79.50
2019-04-04T20:45:58.053Z,79.40
2019-04-04T20:48:27.239Z,79.60
2019-04-04T20:50:54.897Z,79.90
2019-04-04T20:53:22.453Z,80.40
2019-04-04T20:55:50.034Z,80.50
2019-04-04T20:58:17.632Z,80.50
2019-04-04T21:00:46.352Z,80.50
2019-04-04T21:03:13.981Z,80.70
2019-04-04T21:05:41.461Z,81.20
2019-04-04T21:08:11.973Z,81.30
2019-04-04T21:10:42.363Z,81.40
2019-04-04T21:13:10.054Z,82.00
2019-04-04T21:15:40.159Z,82.00
2019-04-04T21:18:07.783Z,82.00
2019-04-04T21:20:35.239Z,81.80
2019-04-04T21:23:02.811Z,82.10
2019-04-04T21:25:30.301Z,82.80
2019-04-04T21:27:57.961Z,83.40
2019-04-04T21:30:25.665Z,83.00
2019-04-04T21:32:53.080Z,83.20
2019-04-04T21:35:21.673Z,83.60
2019-04-04T21:37:49.298Z,83.50
2019-04-04T21:40:16.746Z,83.20
2019-04-04T21:42:45.478Z,83.20
2019-04-04T21:45:15.297Z,83.60
2019-04-04T21:47:42.461Z,84.00
2019-04-04T21:50:09.954Z,84.00
2019-04-04T21:52:37.374Z,84.00
2019-04-04T21:55:05.832Z,84.40
2019-04-04T21:57:33.178Z,84.30
2019-04-04T22:00:00.627Z,84.50
2019-04-04T22:02:28.082Z,85.10
2019-04-04T22:04:57.362Z,85.20
2019-04-04T22:07:25.664Z,85.00
2019-04-04T22:09:53.235Z,85.10
2019-04-04T22:12:20.825Z,85.20
2019-04-04T22:14:48.313Z,84.90
2019-04-04T22:17:16.706Z,85.20
2019-04-04T22:19:44.692Z,85.40
2019-04-04T22:22:13.548Z,85.60
2019-04-04T22:24:41.896Z,85.80
2019-04-04T22:27:10.039Z,85.90
2019-04-04T22:29:37.377Z,86.30
2019-04-04T22:32:04.757Z,86.30
2019-04-04T22:34:33.145Z,86.50
2019-04-04T22:37:00.539Z,86.80
2019-04-04T22:39:28.274Z,86.70
2019-04-04T22:41:55.631Z,86.50
2019-04-04T22:44:34.017Z,86.30
2019-04-04T22:46:53.898Z,86.70
2019-04-04T22:49:21.877Z,87.60
2019-04-04T22:51:49.380Z,87.40
2019-04-04T22:54:17.043Z,87.40
2019-04-04T22:56:44.388Z,87.80
2019-04-04T22:59:11.792Z,87.20
2019-04-04T23:01:39.331Z,86.90
2019-04-04T23:04:06.981Z,87.10
2019-04-04T23:06:36.333Z,86.10
2019-04-04T23:09:08.059Z,85.70
2019-04-04T23:11:35.549Z,85.50
2019-04-04T23:14:04.090Z,85.30
2019-04-04T23:16:31.695Z,85.30
2019-04-04T23:18:59.229Z,86.20
2019-04-04T23:21:26.733Z,86.90
2019-04-04T23:23:54.539Z,86.90
2019-04-04T23:26:22.060Z,87.10
2019-04-04T23:28:49.434Z,86.60
2019-04-04T23:31:16.913Z,86.70
2019-04-04T23:33:44.580Z,86.60
2019-04-04T23:36:12.133Z,86.90
2019-04-04T23:38:41.499Z,86.70
2019-04-04T23:41:09.126Z,86.70
2019-04-04T23:43:36.513Z,86.80
2019-04-04T23:46:04.060Z,86.60
2019-04-04T23:48:31.672Z,87.10
2019-04-04T23:50:59.099Z,87.00
2019-04-04T23:53:26.757Z,87.30
2019-04-04T23:55:54.377Z,87.30
2019-04-04T23:58:21.834Z,87.40
